map of KMI home
KMI - Airport
Location
City:  Miyazaki, Miyazaki, Japan
Name:Miyazaki Airport
ICAO:RJFM
IATA:KMI

Details
Type:Airport (Aerodrome, Airfield)
Use:Public/Civil
Latitude:31°52'38"N (31.877222)
Longitude:131°26'55"E (131.448611)
Datum:WGS 1984
Elevation:20 ft (6 m)
Variation:7.03°W (WMM2015v2 magnetic declination)
-0.08° annual change
Runways:1
Longest:8200 × 150 ft (2499 × 45.5 m), paved

Time
Time Zone:UTC+9
Local Time:

Weather
METAR:RJFM 041200Z 07008KT 9999 FEW030 BKN040 15/09 Q1020
TAF:RJFM 041107Z 0412/0518 02008KT 9999 FEW030
BECMG 0512/0515 27008KT
TEMPO 0512/0518 4000 -SHRA BR FEW005 BKN008 BKN010

Related Locations
Nearby:
Farthest:SNPV: 12295 mi / 19788 km
Mostardas [Solidão], RS, BR

Find:

   beyond  
but within

Other Information
Maps:
NOTAMs:
Links:
Sources:

  
  • flag of Japan
  • flag of Miyazaki
  • flag of Miyazaki
  

Sectional Chart

Flight Planning
at skyvector.com

Satellite Image

Google Maps Satellite view

 

Copyright © 2004-2019 Karl L. Swartz. All rights reserved.
The Great Circle Mapper name and logo are trademarks of the Great Circle Mapper.
All other trademarks mentioned herein belong to their respective owners.
Please see credits for attibutions and further copyright information.

  Follow gcmap on Facebook Follow gcmap on Twitter GCmap on LinkedIn

hCard Microformat

Geo Microformat